createdAt,value
2018-06-05T00:00:25.363Z,17.27
2018-06-05T00:03:28.517Z,17.07
2018-06-05T00:06:31.662Z,16.73
2018-06-05T00:09:34.854Z,17.53
2018-06-05T00:12:38.137Z,19.10
2018-06-05T00:15:41.273Z,17.80
2018-06-05T00:18:44.431Z,19.07
2018-06-05T00:21:47.563Z,17.67
2018-06-05T00:24:50.712Z,20.00
2018-06-05T00:27:53.845Z,17.03
2018-06-05T00:30:57.018Z,17.10
2018-06-05T00:34:00.165Z,19.47
2018-06-05T00:37:03.291Z,18.37
2018-06-05T00:40:06.465Z,18.30
2018-06-05T00:43:09.613Z,19.83
2018-06-05T00:46:12.849Z,20.47
2018-06-05T00:49:16.030Z,20.00
2018-06-05T00:52:19.203Z,20.27
2018-06-05T00:55:22.412Z,19.77
2018-06-05T00:58:25.558Z,18.07
2018-06-05T01:01:28.744Z,20.70
2018-06-05T01:04:31.884Z,19.37
2018-06-05T01:07:35.021Z,21.50
2018-06-05T01:10:38.167Z,22.13
2018-06-05T01:13:41.324Z,24.27
2018-06-05T01:16:44.472Z,21.90
2018-06-05T01:19:47.603Z,21.37
2018-06-05T01:22:50.772Z,22.10
2018-06-05T01:25:53.939Z,22.33
2018-06-05T01:28:57.047Z,21.27
2018-06-05T01:32:00.239Z,20.57
2018-06-05T01:35:03.401Z,20.73
2018-06-05T01:38:06.596Z,32.07
2018-06-05T01:41:09.883Z,21.77
2018-06-05T01:44:12.998Z,21.50
2018-06-05T01:47:16.126Z,25.53
2018-06-05T01:50:19.284Z,24.37
2018-06-05T01:53:22.429Z,23.80
2018-06-05T01:56:25.561Z,24.23
2018-06-05T01:59:28.795Z,25.70
2018-06-05T02:02:31.910Z,23.93
2018-06-05T02:05:35.067Z,22.97
2018-06-05T02:08:38.252Z,23.57
2018-06-05T02:11:41.357Z,23.00
2018-06-05T02:14:44.509Z,21.90
2018-06-05T02:17:47.686Z,20.87
2018-06-05T02:20:50.818Z,24.10
2018-06-05T02:23:53.954Z,27.40
2018-06-05T02:26:57.104Z,25.00
2018-06-05T02:30:00.293Z,23.73
2018-06-05T02:33:03.432Z,25.60
2018-06-05T02:36:07.286Z,24.13
2018-06-05T02:39:10.807Z,26.07
2018-06-05T02:42:13.995Z,24.10
2018-06-05T02:45:17.148Z,47.10
2018-06-05T02:48:20.280Z,30.53
2018-06-05T02:51:23.420Z,27.70
2018-06-05T02:54:26.593Z,25.07
2018-06-05T02:57:30.432Z,24.07
2018-06-05T03:00:35.023Z,22.60
2018-06-05T03:03:39.090Z,23.17
2018-06-05T03:06:42.822Z,27.93
2018-06-05T03:09:52.031Z,27.27
2018-06-05T03:12:55.253Z,21.33
2018-06-05T03:15:58.389Z,22.87
2018-06-05T03:19:01.546Z,22.80
2018-06-05T03:22:04.699Z,21.60
2018-06-05T03:25:07.871Z,21.63
2018-06-05T03:28:11.038Z,22.90
2018-06-05T03:31:14.197Z,21.60
2018-06-05T03:34:17.424Z,23.57
2018-06-05T03:37:20.641Z,21.83
2018-06-05T03:40:23.904Z,20.90
2018-06-05T03:43:27.130Z,28.73
2018-06-05T03:46:30.334Z,26.53
2018-06-05T03:49:38.848Z,19.80
2018-06-05T03:52:42.038Z,22.70
2018-06-05T03:55:45.153Z,19.90
2018-06-05T03:58:48.360Z,18.83
2018-06-05T04:01:51.715Z,19.80
2018-06-05T04:04:54.839Z,18.87
2018-06-05T04:07:58.004Z,17.97
2018-06-05T04:11:01.135Z,18.53
2018-06-05T04:14:04.301Z,17.90
2018-06-05T04:17:07.670Z,18.00
2018-06-05T04:20:10.822Z,20.27
2018-06-05T04:23:13.996Z,19.10
2018-06-05T04:26:17.552Z,20.00
2018-06-05T04:29:20.728Z,17.73
2018-06-05T04:32:23.928Z,19.90
2018-06-05T04:35:27.081Z,18.32
2018-06-05T04:38:30.249Z,18.67
2018-06-05T04:41:33.417Z,18.27
2018-06-05T04:44:36.559Z,20.17
2018-06-05T04:47:39.774Z,19.33
2018-06-05T04:50:42.945Z,19.60
2018-06-05T04:53:46.083Z,19.50
2018-06-05T04:56:49.271Z,19.67
2018-06-05T04:59:52.498Z,19.50
2018-06-05T05:02:56.902Z,19.83
2018-06-05T05:06:00.079Z,20.20
2018-06-05T05:09:03.310Z,19.40
2018-06-05T05:12:06.503Z,21.27
2018-06-05T05:15:09.652Z,19.60
2018-06-05T05:18:12.833Z,19.70
2018-06-05T05:21:15.971Z,18.80
2018-06-05T05:24:20.063Z,17.60
2018-06-05T05:27:23.262Z,16.83
2018-06-05T05:30:26.401Z,19.07
2018-06-05T05:33:29.597Z,59.73
2018-06-05T05:36:32.751Z,20.40
2018-06-05T05:39:35.943Z,22.30
2018-06-05T05:42:39.093Z,21.30
2018-06-05T05:45:42.262Z,19.57
2018-06-05T05:48:45.410Z,19.47
2018-06-05T05:51:48.550Z,19.93
2018-06-05T05:54:51.680Z,20.23
2018-06-05T05:57:54.807Z,20.17
2018-06-05T06:00:57.974Z,18.77
2018-06-05T06:04:01.142Z,18.10
2018-06-05T06:07:04.366Z,20.63
2018-06-05T06:10:07.521Z,19.90
2018-06-05T06:13:10.654Z,19.93
2018-06-05T06:16:13.822Z,19.87
2018-06-05T06:19:18.058Z,18.57
2018-06-05T06:22:21.189Z,18.97
2018-06-05T06:25:24.379Z,17.90
2018-06-05T06:28:27.559Z,18.57
2018-06-05T06:31:30.757Z,17.53
2018-06-05T06:34:33.924Z,18.50
2018-06-05T06:37:37.131Z,20.00
2018-06-05T06:40:40.307Z,18.90
2018-06-05T06:43:43.483Z,19.90
2018-06-05T06:46:46.650Z,22.43
2018-06-05T06:49:49.821Z,21.13
2018-06-05T06:52:52.998Z,19.70
2018-06-05T06:55:56.265Z,18.43
2018-06-05T06:58:59.456Z,20.90
2018-06-05T07:02:02.628Z,20.87
2018-06-05T07:05:05.884Z,20.40
2018-06-05T07:08:09.071Z,19.83
2018-06-05T07:11:12.223Z,19.33
2018-06-05T07:14:15.383Z,20.50
2018-06-05T07:17:18.513Z,20.87
2018-06-05T07:20:21.701Z,19.70
2018-06-05T07:23:24.876Z,19.80
2018-06-05T07:26:28.097Z,19.37
2018-06-05T07:29:31.258Z,22.83
2018-06-05T07:32:34.439Z,22.07
2018-06-05T07:35:37.582Z,19.53
2018-06-05T07:38:40.780Z,19.47
2018-06-05T07:41:43.931Z,18.90
2018-06-05T07:44:47.091Z,21.90
2018-06-05T07:47:50.386Z,21.90
2018-06-05T07:50:53.550Z,23.43
2018-06-05T07:53:56.783Z,19.83
2018-06-05T07:57:00.292Z,19.43
2018-06-05T08:00:03.787Z,18.37
2018-06-05T08:03:06.999Z,19.53
2018-06-05T08:06:10.336Z,18.43
2018-06-05T08:09:13.520Z,19.43
2018-06-05T08:12:16.688Z,19.37
2018-06-05T08:15:19.876Z,18.57
2018-06-05T08:18:23.145Z,20.70
2018-06-05T08:21:26.295Z,19.00
2018-06-05T08:24:29.599Z,19.97
2018-06-05T08:27:32.833Z,29.93
2018-06-05T08:30:36.021Z,54.03
2018-06-05T08:33:40.105Z,23.70
2018-06-05T08:36:43.364Z,22.10
2018-06-05T08:39:46.571Z,20.33
2018-06-05T08:42:49.762Z,18.63
2018-06-05T08:45:52.971Z,18.83
2018-06-05T08:48:56.202Z,19.83
2018-06-05T08:51:59.442Z,18.47
2018-06-05T08:55:02.632Z,18.77
2018-06-05T08:58:05.848Z,32.63
2018-06-05T09:01:09.019Z,25.63
2018-06-05T09:04:12.279Z,36.97
2018-06-05T09:07:15.465Z,29.10
2018-06-05T09:10:18.641Z,27.77
2018-06-05T09:13:21.913Z,23.37
2018-06-05T09:16:25.911Z,25.53
2018-06-05T09:19:30.207Z,21.47
2018-06-05T09:22:33.442Z,19.97
2018-06-05T09:25:36.665Z,19.87
2018-06-05T09:28:39.885Z,19.77
2018-06-05T09:31:43.148Z,19.37
2018-06-05T09:34:46.316Z,22.03
2018-06-05T09:37:49.563Z,25.03
2018-06-05T09:40:52.882Z,28.87
2018-06-05T09:43:56.259Z,21.97
2018-06-05T09:46:59.480Z,20.03
2018-06-05T09:50:02.784Z,20.73
2018-06-05T09:53:05.961Z,22.37
2018-06-05T09:56:09.262Z,22.53
2018-06-05T09:59:12.584Z,20.07
2018-06-05T10:02:15.846Z,19.53
2018-06-05T10:05:19.069Z,20.43
2018-06-05T10:08:22.297Z,18.00
2018-06-05T10:11:25.543Z,19.03
2018-06-05T10:14:28.762Z,21.67
2018-06-05T10:17:31.940Z,23.37
2018-06-05T10:20:35.315Z,30.33
2018-06-05T10:23:38.499Z,25.97
2018-06-05T10:26:41.745Z,22.53
2018-06-05T10:29:44.985Z,25.47
2018-06-05T10:32:48.258Z,25.93
2018-06-05T10:35:51.525Z,20.67
2018-06-05T10:38:54.859Z,22.47
2018-06-05T10:41:58.145Z,19.87
2018-06-05T10:45:01.407Z,20.13
2018-06-05T10:48:04.661Z,22.70
2018-06-05T10:51:07.953Z,24.10
2018-06-05T10:54:11.175Z,40.67
2018-06-05T10:57:14.410Z,29.53
2018-06-05T11:00:17.604Z,26.03
2018-06-05T11:03:20.861Z,25.67
2018-06-05T11:06:24.102Z,24.33
2018-06-05T11:09:28.251Z,23.87
2018-06-05T11:12:31.485Z,33.40
2018-06-05T11:15:34.681Z,34.23
2018-06-05T11:18:37.867Z,32.47
2018-06-05T11:21:41.128Z,23.33
2018-06-05T11:24:44.328Z,20.03
2018-06-05T11:27:47.597Z,19.23
2018-06-05T11:30:50.809Z,18.70
2018-06-05T11:33:54.090Z,18.80
2018-06-05T11:36:57.347Z,18.00
2018-06-05T11:40:00.537Z,18.03
2018-06-05T11:43:03.748Z,17.73
2018-06-05T11:46:07.017Z,16.77
2018-06-05T11:49:10.247Z,16.63
2018-06-05T11:52:13.477Z,17.53
2018-06-05T11:55:16.693Z,15.27
2018-06-05T11:58:19.989Z,17.77
2018-06-05T12:01:23.255Z,16.43
2018-06-05T12:04:26.449Z,15.00
2018-06-05T12:07:29.743Z,15.83
2018-06-05T12:10:33.037Z,17.20
2018-06-05T12:13:36.340Z,19.23
2018-06-05T12:16:39.568Z,17.10
2018-06-05T12:19:42.799Z,14.10
2018-06-05T12:22:46.094Z,13.17
2018-06-05T12:25:49.278Z,12.97
2018-06-05T12:28:52.591Z,12.23
2018-06-05T12:31:55.810Z,12.40
2018-06-05T12:34:58.994Z,12.40
2018-06-05T12:38:02.885Z,11.13
2018-06-05T12:41:06.257Z,11.43
2018-06-05T12:44:09.543Z,11.50
2018-06-05T12:47:12.766Z,10.93
2018-06-05T12:50:15.969Z,10.47
2018-06-05T12:53:19.179Z,10.57
2018-06-05T12:56:22.350Z,10.83
2018-06-05T12:59:25.609Z,14.27
2018-06-05T13:02:28.803Z,15.47
2018-06-05T13:05:31.999Z,20.87
2018-06-05T13:08:35.225Z,19.37
2018-06-05T13:11:38.438Z,16.93
2018-06-05T13:14:41.668Z,10.00
2018-06-05T13:17:44.896Z,8.70
2018-06-05T13:20:48.171Z,8.47
2018-06-05T13:23:51.456Z,8.47
2018-06-05T13:27:05.625Z,9.93
2018-06-05T13:30:08.895Z,20.33
2018-06-05T13:33:12.175Z,10.20
2018-06-05T13:36:16.310Z,10.03
2018-06-05T13:39:19.470Z,8.97
2018-06-05T13:42:22.787Z,8.97
2018-06-05T13:45:26.194Z,8.90
2018-06-05T13:48:29.496Z,25.17
2018-06-05T13:51:32.838Z,13.70
2018-06-05T13:54:41.769Z,10.50
2018-06-05T13:57:59.306Z,11.17
2018-06-05T14:01:02.671Z,10.00
2018-06-05T14:04:05.974Z,15.00
2018-06-05T14:07:09.259Z,30.03
2018-06-05T14:10:12.539Z,12.87
2018-06-05T14:13:15.878Z,15.43
2018-06-05T14:16:19.235Z,15.33
2018-06-05T14:19:22.571Z,11.57
2018-06-05T14:22:25.880Z,9.73
2018-06-05T14:25:29.254Z,9.57
2018-06-05T14:28:32.730Z,10.27
2018-06-05T14:31:36.070Z,9.47
2018-06-05T14:34:39.419Z,9.47
2018-06-05T14:37:42.784Z,10.40
2018-06-05T14:40:46.081Z,9.73
2018-06-05T14:43:49.458Z,9.33
2018-06-05T14:46:52.878Z,10.97
2018-06-05T14:49:56.234Z,9.83
2018-06-05T14:52:59.539Z,17.60
2018-06-05T14:56:02.821Z,52.27
2018-06-05T14:59:06.186Z,16.13
2018-06-05T15:02:09.503Z,11.27
2018-06-05T15:05:12.801Z,10.53
2018-06-05T15:08:16.177Z,9.97
2018-06-05T15:11:19.471Z,10.97
2018-06-05T15:14:22.870Z,10.03
2018-06-05T15:17:26.229Z,9.27
2018-06-05T15:20:29.603Z,10.67
2018-06-05T15:23:33.250Z,9.87
2018-06-05T15:26:36.506Z,11.03
2018-06-05T15:29:39.877Z,10.87
2018-06-05T15:32:43.149Z,9.10
2018-06-05T15:35:46.444Z,10.00
2018-06-05T15:38:50.010Z,10.90
2018-06-05T15:41:53.327Z,9.67
2018-06-05T15:44:56.714Z,10.23
2018-06-05T15:48:00.126Z,9.50
2018-06-05T15:51:03.459Z,9.77
2018-06-05T15:54:06.822Z,11.77
2018-06-05T15:57:10.184Z,8.67
2018-06-05T16:00:13.555Z,9.63
2018-06-05T16:03:16.974Z,10.60
2018-06-05T16:06:20.419Z,64.13
2018-06-05T16:09:23.954Z,70.27
2018-06-05T16:12:27.480Z,29.87
2018-06-05T16:15:30.954Z,22.07
2018-06-05T16:18:35.362Z,14.70
2018-06-05T16:21:38.892Z,42.57
2018-06-05T16:24:42.240Z,15.33
2018-06-05T16:27:46.398Z,11.87
2018-06-05T16:30:49.927Z,11.47
2018-06-05T16:33:53.412Z,10.33
2018-06-05T16:36:56.792Z,12.17
2018-06-05T16:40:00.217Z,11.73
2018-06-05T16:43:04.511Z,13.43
2018-06-05T16:46:07.962Z,9.67
2018-06-05T16:49:11.337Z,11.40
2018-06-05T16:52:14.728Z,10.13
2018-06-05T16:55:18.189Z,10.27
2018-06-05T16:58:21.563Z,9.73
2018-06-05T17:01:25.225Z,11.67
2018-06-05T17:04:28.842Z,11.50
2018-06-05T17:07:32.279Z,15.13
2018-06-05T17:10:35.907Z,11.97
2018-06-05T17:13:39.531Z,11.57
2018-06-05T17:16:43.235Z,9.77
2018-06-05T17:19:46.765Z,13.10
2018-06-05T17:22:50.482Z,17.47
2018-06-05T17:25:53.941Z,10.57
2018-06-05T17:28:57.524Z,9.80
2018-06-05T17:32:01.949Z,9.60
2018-06-05T17:35:05.899Z,39.50
2018-06-05T17:38:09.634Z,46.03
2018-06-05T17:41:13.139Z,31.53
2018-06-05T17:44:16.688Z,12.90
2018-06-05T17:47:20.250Z,60.23
2018-06-05T17:50:24.061Z,64.20
2018-06-05T17:53:27.760Z,47.00
2018-06-05T17:56:31.417Z,16.30
2018-06-05T17:59:34.900Z,17.47
2018-06-05T18:02:39.352Z,22.77
2018-06-05T18:05:43.127Z,20.60
2018-06-05T18:08:47.986Z,18.50
2018-06-05T18:11:51.446Z,14.30
2018-06-05T18:14:57.017Z,6.40
2018-06-05T18:18:02.047Z,3.80
2018-06-05T18:21:06.780Z,3.03
2018-06-05T18:24:11.238Z,3.67
2018-06-05T18:27:17.313Z,3.80
2018-06-05T18:30:22.898Z,3.60
2018-06-05T18:33:27.472Z,5.57
2018-06-05T18:36:32.055Z,3.53
2018-06-05T18:39:37.824Z,2.90
2018-06-05T18:42:41.644Z,3.67
2018-06-05T18:45:45.857Z,2.93
2018-06-05T18:48:49.587Z,2.73
2018-06-05T18:51:54.679Z,3.30
2018-06-05T18:55:01.361Z,2.60
2018-06-05T18:58:05.847Z,3.50
2018-06-05T19:01:09.652Z,2.70
2018-06-05T19:04:13.768Z,2.27
2018-06-05T19:07:17.495Z,2.20
2018-06-05T19:10:21.239Z,2.03
2018-06-05T19:13:25.113Z,1.87
2018-06-05T19:16:29.766Z,2.10
2018-06-05T19:19:34.949Z,2.33
2018-06-05T19:22:39.798Z,2.30
2018-06-05T19:25:43.474Z,3.00
2018-06-05T19:28:47.352Z,1.90
2018-06-05T19:31:51.231Z,2.67
2018-06-05T19:34:55.188Z,2.30
2018-06-05T19:37:58.994Z,2.07
2018-06-05T19:41:02.830Z,2.30
2018-06-05T19:44:07.727Z,2.40
2018-06-05T19:47:11.261Z,2.60
2018-06-05T19:50:16.281Z,2.40
2018-06-05T19:53:20.792Z,2.20
2018-06-05T19:56:24.795Z,2.30
2018-06-05T19:59:28.685Z,2.30
2018-06-05T20:02:32.544Z,2.40
2018-06-05T20:05:38.725Z,2.30
2018-06-05T20:08:42.596Z,2.60
2018-06-05T20:11:47.563Z,3.10
2018-06-05T20:14:51.631Z,15.73
2018-06-05T20:17:55.502Z,25.80
2018-06-05T20:20:59.033Z,13.30
2018-06-05T20:24:03.109Z,6.60
2018-06-05T20:27:06.540Z,9.47
2018-06-05T20:30:12.247Z,4.30
2018-06-05T20:33:16.385Z,2.30
2018-06-05T20:36:19.969Z,2.37
2018-06-05T20:39:24.900Z,2.00
2018-06-05T20:42:28.397Z,2.03
2018-06-05T20:45:31.972Z,2.47
2018-06-05T20:48:35.887Z,2.20
2018-06-05T20:51:39.917Z,1.63
2018-06-05T20:54:43.543Z,2.00
2018-06-05T20:57:47.844Z,2.20
2018-06-05T21:00:51.769Z,5.20
2018-06-05T21:03:55.288Z,4.03
2018-06-05T21:06:59.593Z,2.50
2018-06-05T21:10:03.125Z,2.20
2018-06-05T21:13:06.598Z,2.10
2018-06-05T21:16:10.042Z,1.90
2018-06-05T21:19:13.408Z,8.47
2018-06-05T21:22:16.702Z,3.90
2018-06-05T21:25:19.995Z,2.50
2018-06-05T21:28:23.308Z,2.47
2018-06-05T21:31:26.696Z,1.73
2018-06-05T21:34:30.094Z,1.97
2018-06-05T21:37:33.424Z,2.10
2018-06-05T21:40:36.831Z,2.10
2018-06-05T21:43:40.157Z,2.43
2018-06-05T21:46:43.496Z,2.00
2018-06-05T21:49:46.800Z,1.97
2018-06-05T21:52:50.158Z,2.00
2018-06-05T21:55:53.487Z,6.63
2018-06-05T21:58:57.328Z,24.40
2018-06-05T22:02:00.684Z,39.10
2018-06-05T22:05:04.021Z,16.57
2018-06-05T22:08:07.429Z,11.20
2018-06-05T22:11:10.765Z,8.47
2018-06-05T22:14:14.189Z,6.97
2018-06-05T22:17:17.618Z,4.20
2018-06-05T22:20:20.946Z,3.77
2018-06-05T22:23:24.216Z,3.87
2018-06-05T22:26:27.627Z,4.03
2018-06-05T22:29:30.895Z,3.47
2018-06-05T22:32:34.301Z,2.60
2018-06-05T22:35:37.589Z,3.13
2018-06-05T22:38:40.901Z,3.07
2018-06-05T22:41:44.246Z,2.50
2018-06-05T22:44:47.524Z,2.37
2018-06-05T22:47:50.790Z,2.67
2018-06-05T22:50:54.052Z,2.30
2018-06-05T22:53:57.369Z,2.40
2018-06-05T22:57:01.254Z,2.27
2018-06-05T23:00:04.469Z,2.00
2018-06-05T23:03:07.724Z,2.00
2018-06-05T23:06:11.034Z,2.13
2018-06-05T23:09:14.286Z,2.07
2018-06-05T23:12:17.584Z,2.20
2018-06-05T23:15:20.813Z,1.90
2018-06-05T23:18:24.090Z,1.90
2018-06-05T23:21:27.428Z,2.00
2018-06-05T23:24:30.797Z,1.80
2018-06-05T23:27:34.095Z,1.97
2018-06-05T23:30:37.464Z,1.90
2018-06-05T23:33:40.730Z,1.97
2018-06-05T23:36:44.501Z,1.90
2018-06-05T23:39:47.796Z,1.80
2018-06-05T23:42:51.143Z,1.80
2018-06-05T23:45:54.408Z,1.90
2018-06-05T23:48:57.593Z,1.63
2018-06-05T23:52:00.805Z,1.70
2018-06-05T23:55:03.991Z,1.87
2018-06-05T23:58:07.241Z,1.90
